Stations météo

réclame
Mon MeteoGroup
Ile du Levant, France (7678): Température de l'air & dewpoint: 08.07.2020 04:00:00 - 14.07.2020 04:00:00 (CEST)Ile du Levant, France (7678): Vitesse du vent & gusts: 08.07.2020 04:00:00 - 14.07.2020 04:00:00 (CEST)Ile du Levant, France (7678): Direction du vent: 08.07.2020 04:00:00 - 14.07.2020 04:00:00 (CEST)Ile du Levant, France (7678): reduced air pressure: 08.07.2020 04:00:00 - 14.07.2020 04:00:00 (CEST)Ile du Levant, France (7678): Ensoleillement: 08.07.2020 04:00:00 - 14.07.2020 04:00:00 (CEST)Ile du Levant, France (7678): Quantités de précipitations: 08.07.2020 04:00:00 - 14.07.2020 04:00:00 (CEST)
Date & Time tt [°C] td [°C] ff [km/h] ff [knt] fx [km/h] fx [knt] dd ppp [hPa] sd [min] rr [mm]
14.07.2020 04:00:00 - - - - - - - - - -
14.07.2020 03:00:00 20,8 18,9 7 4 12 7 W 1015,1 0 0,0
14.07.2020 02:00:00 21,1 18,8 8 5 10 5 W 1015,4 0 0,0
14.07.2020 01:00:00 - - - - - - - - - -
14.07.2020 00:00:00 - - - - - - - - - -
13.07.2020 23:00:00 21,6 18,8 7 4 14 8 W 1016,2 0 0,0
13.07.2020 22:00:00 22,0 18,8 10 5 16 9 W 1016,2 0 0,0
13.07.2020 21:00:00 22,8 16,8 6 3 12 6 WSW 1016,1 53 0,0
13.07.2020 20:00:00 24,4 17,6 9 5 18 10 ESE 1016,0 60 0,0
13.07.2020 19:00:00 25,6 18,0 0 0 29 15 N 1015,9 60 0,0
13.07.2020 18:00:00 25,6 18,5 18 10 30 16 E 1016,1 60 0,0
13.07.2020 17:00:00 25,6 17,8 24 13 35 19 E 1016,7 60 0,0
13.07.2020 16:00:00 26,6 17,4 21 12 31 17 E 1017,3 50 0,0
13.07.2020 15:00:00 26,1 16,4 19 10 31 17 E 1017,9 47 0,0
13.07.2020 14:00:00 28,3 15,6 22 12 35 19 ESE 1017,7 60 0,0
13.07.2020 13:00:00 27,3 15,3 24 13 36 19 E 1018,2 60 0,0
13.07.2020 12:00:00 25,7 17,1 26 14 37 20 E 1018,5 50 0,0
13.07.2020 11:00:00 26,6 16,8 24 13 42 23 E 1018,4 58 0,0
13.07.2020 10:00:00 25,8 16,4 22 12 31 17 E 1018,3 28 0,0
13.07.2020 09:00:00 24,9 17,6 14 8 34 18 E 1018,3 4 0,0
13.07.2020 08:00:00 25,2 17,1 17 9 29 16 E 1018,0 53 0,0
13.07.2020 07:00:00 23,0 17,7 14 7 22 12 E 1017,9 10 0,0
13.07.2020 06:00:00 22,6 16,2 10 5 20 11 ENE 1017,7 0 0,0
13.07.2020 05:00:00 22,3 17,4 9 5 20 11 E 1017,7 0 0,0
13.07.2020 04:00:00 22,2 19,6 9 5 12 7 W 1017,5 0 0,0
13.07.2020 03:00:00 23,4 18,3 9 5 11 6 W 1017,9 0 0,0
13.07.2020 02:00:00 24,2 15,7 6 4 12 6 NW 1018,1 0 0,0
13.07.2020 01:00:00 22,4 19,4 11 6 19 10 W 1018,5 0 0,0
13.07.2020 00:00:00 22,9 19,9 10 6 16 9 W 1018,5 0 0,0
12.07.2020 23:00:00 24,0 16,3 10 5 17 9 NE 1017,3 0 0,0
12.07.2020 22:00:00 22,8 18,3 9 5 22 12 NNW 1017,6 0 0,0
12.07.2020 21:00:00 23,2 20,3 15 8 20 11 WNW 1018,2 5 0,0
12.07.2020 20:00:00 24,1 19,8 11 6 17 9 W 1017,8 8 0,0
12.07.2020 19:00:00 26,3 17,1 4 2 11 6 E 1017,6 15 0,0
12.07.2020 18:00:00 26,4 18,3 9 5 27 14 ESE 1017,9 43 0,0
12.07.2020 17:00:00 27,5 18,8 17 9 26 14 E 1017,6 60 0,0
12.07.2020 16:00:00 28,0 19,0 13 7 23 13 ESE 1017,9 60 0,0
12.07.2020 15:00:00 27,5 19,6 13 7 23 12 ESE 1018,2 60 0,0
12.07.2020 14:00:00 26,9 20,5 15 8 27 14 ESE 1018,0 60 0,0
12.07.2020 13:00:00 26,6 20,7 16 9 36 19 E 1017,8 60 0,0
12.07.2020 12:00:00 26,1 20,4 27 15 39 21 E 1017,3 56 0,0
12.07.2020 11:00:00 26,9 20,5 18 10 29 15 E 1017,2 60 0,0
12.07.2020 10:00:00 25,6 20,6 23 12 41 22 E 1017,1 46 0,0
12.07.2020 09:00:00 24,3 21,0 31 17 43 23 E 1016,3 9 0,0
12.07.2020 08:00:00 23,6 21,3 22 12 34 18 E 1015,8 29 0,0
12.07.2020 07:00:00 22,7 21,2 18 10 35 19 ENE 1015,4 1 0,0
12.07.2020 06:00:00 22,1 20,9 15 8 30 16 ENE 1015,1 0 0,0
12.07.2020 05:00:00 22,1 20,9 15 8 29 16 ENE 1014,7 0 0,0
12.07.2020 04:00:00 22,2 20,8 19 10 37 20 NE 1014,6 0 0,0
12.07.2020 03:00:00 22,3 21,3 19 11 34 18 NE 1014,8 0 0,0
12.07.2020 02:00:00 22,2 21,0 15 8 32 17 NE 1014,9 0 0,0
12.07.2020 01:00:00 22,4 21,2 20 11 37 20 NE 1014,9 0 0,0
12.07.2020 00:00:00 22,6 21,4 22 12 40 22 ENE 1014,6 0 0,0
11.07.2020 23:00:00 22,7 21,2 21 12 41 22 ENE 1014,4 0 0,0
11.07.2020 22:00:00 23,0 21,4 25 14 42 23 ENE 1013,4 0 0,0
11.07.2020 21:00:00 23,6 21,5 19 10 29 16 E 1012,6 53 0,0
11.07.2020 20:00:00 25,8 21,0 16 9 48 26 E 1012,1 60 0,0
11.07.2020 19:00:00 28,7 15,9 31 17 51 28 W 1011,4 60 0,0
11.07.2020 18:00:00 29,4 16,6 34 18 50 27 W 1011,2 60 0,0
11.07.2020 17:00:00 29,5 16,0 34 19 54 29 W 1011,5 60 0,0
11.07.2020 16:00:00 29,2 17,1 29 16 45 24 W 1012,1 60 0,0
11.07.2020 15:00:00 29,1 18,8 28 15 39 21 W 1012,6 60 0,0
11.07.2020 14:00:00 28,8 19,1 20 11 30 16 W 1013,0 60 0,0
11.07.2020 13:00:00 27,5 19,6 20 11 34 18 W 1013,4 60 0,0
11.07.2020 12:00:00 26,3 20,4 13 7 19 10 W 1013,9 60 0,0
11.07.2020 11:00:00 25,0 20,7 7 4 16 9 WNW 1014,0 60 0,0
11.07.2020 10:00:00 25,0 20,7 3 2 13 7 NW 1014,1 60 0,0
11.07.2020 09:00:00 24,1 20,6 5 3 11 6 S 1014,1 60 0,0
11.07.2020 08:00:00 22,6 20,3 4 2 9 5 W 1014,0 60 0,0
11.07.2020 07:00:00 21,4 19,9 4 2 15 8 N 1013,9 19 0,0
11.07.2020 06:00:00 21,0 19,8 7 4 11 6 W 1013,8 0 0,0
11.07.2020 05:00:00 21,4 20,2 9 5 28 15 WNW 1013,8 0 0,0
11.07.2020 04:00:00 21,4 19,5 21 11 30 16 WNW 1013,6 0 0,0
11.07.2020 03:00:00 21,7 20,0 24 13 34 18 W 1013,9 0 0,0
11.07.2020 02:00:00 21,8 19,9 19 10 29 16 W 1014,4 0 0,0
11.07.2020 01:00:00 21,9 19,8 16 9 23 13 W 1014,6 0 0,0
11.07.2020 00:00:00 22,2 19,7 18 10 29 15 W 1014,6 0 0,0
10.07.2020 23:00:00 22,3 19,5 20 11 33 18 W 1014,2 0 0,0
10.07.2020 22:00:00 23,0 18,7 18 10 32 18 W 1014,1 0 0,0
10.07.2020 21:00:00 22,6 19,6 22 12 44 24 W 1014,1 0 0,0
10.07.2020 20:00:00 22,8 20,1 31 17 54 29 W 1014,0 25 0,0
10.07.2020 19:00:00 23,6 19,5 36 19 50 27 W 1014,1 58 0,0
10.07.2020 18:00:00 24,6 18,1 26 14 48 26 W 1014,2 35 0,0
10.07.2020 17:00:00 24,4 17,6 32 17 48 26 WSW 1014,3 34 0,0
10.07.2020 16:00:00 25,9 15,9 24 13 42 23 SW 1014,5 60 0,0
10.07.2020 15:00:00 27,3 12,9 22 12 34 19 SW 1014,2 60 0,0
10.07.2020 14:00:00 28,4 15,3 12 7 21 11 SW 1014,7 60 0,0
10.07.2020 13:00:00 27,6 14,2 13 7 24 13 WNW 1015,4 60 0,0
10.07.2020 12:00:00 26,8 14,5 19 10 28 15 W 1016,0 60 0,0
10.07.2020 11:00:00 25,3 17,2 19 10 27 15 W 1016,4 60 0,0
10.07.2020 10:00:00 23,5 19,2 12 7 18 10 W 1016,6 60 0,0
10.07.2020 09:00:00 22,5 19,9 13 7 24 13 WNW 1016,4 56 0,0
10.07.2020 08:00:00 21,5 20,3 16 9 24 13 WNW 1016,3 60 0,2
10.07.2020 07:00:00 20,5 19,8 12 7 16 9 WNW 1015,9 4 0,0
10.07.2020 06:00:00 20,6 19,8 13 7 17 9 WNW 1015,8 0 0,0
10.07.2020 05:00:00 21,0 20,2 8 4 16 9 WNW 1015,0 0 0,0
10.07.2020 04:00:00 20,9 19,7 12 6 28 15 W 1015,0 0 0,0
10.07.2020 03:00:00 21,3 20,1 24 13 37 20 W 1015,6 0 0,0
10.07.2020 02:00:00 21,7 20,2 29 15 39 21 W 1016,1 0 0,0
10.07.2020 01:00:00 21,7 19,1 23 12 32 17 W 1016,5 0 0,0
10.07.2020 00:00:00 21,8 18,4 19 11 29 16 W 1016,4 0 0,0
09.07.2020 23:00:00 22,0 16,7 19 10 26 14 W 1016,3 0 0,0
09.07.2020 22:00:00 22,3 15,6 20 11 26 14 W 1016,2 0 0,0
09.07.2020 21:00:00 22,7 16,0 15 8 31 17 WSW 1015,9 48 0,0
09.07.2020 20:00:00 24,7 16,4 14 7 29 16 WSW 1015,7 60 0,0
09.07.2020 19:00:00 25,0 16,4 19 10 31 17 SW 1015,9 60 0,0
09.07.2020 18:00:00 26,4 16,6 16 9 29 15 WSW 1016,0 60 0,0
09.07.2020 17:00:00 27,6 12,8 20 11 - - W 1016,6 60 0,0
09.07.2020 16:00:00 27,0 13,0 21 11 34 18 W 1016,9 60 0,0
09.07.2020 15:00:00 27,7 15,0 21 11 32 17 WSW 1017,3 60 0,0
09.07.2020 14:00:00 27,4 11,8 18 10 28 15 W 1017,5 60 0,0
09.07.2020 13:00:00 26,6 13,7 18 10 25 14 W 1018,1 60 0,0
09.07.2020 12:00:00 27,1 12,3 12 6 20 11 WNW 1017,9 60 0,0
09.07.2020 11:00:00 26,2 17,8 5 3 13 7 NW 1017,9 60 0,0
09.07.2020 10:00:00 26,1 14,2 4 2 13 7 SE 1017,4 60 0,0
09.07.2020 09:00:00 24,8 18,0 8 5 15 8 E 1016,6 60 0,0
09.07.2020 08:00:00 24,2 15,9 3 1 7 4 E 1016,4 60 0,0
09.07.2020 07:00:00 22,3 12,8 3 2 12 7 NW 1016,3 37 0,0
09.07.2020 06:00:00 21,2 12,3 5 3 16 8 WNW 1016,1 0 0,0
09.07.2020 05:00:00 20,6 15,2 8 4 16 9 W 1016,2 0 0,0
09.07.2020 04:00:00 20,8 15,3 12 7 18 10 W 1016,4 0 0,0
09.07.2020 03:00:00 21,3 15,6 15 8 20 11 WNW 1016,5 0 0,0
09.07.2020 02:00:00 21,6 15,2 16 8 24 13 W 1016,5 0 0,0
09.07.2020 01:00:00 22,1 13,7 16 9 25 14 W 1017,0 0 0,0
09.07.2020 00:00:00 22,0 15,6 17 9 25 13 W 1017,1 0 0,0
08.07.2020 23:00:00 21,6 15,7 14 8 18 10 W 1016,8 0 0,0
08.07.2020 22:00:00 22,4 17,7 10 5 16 9 W 1016,0 0 0,0
08.07.2020 21:00:00 23,7 15,2 9 5 16 9 W 1015,7 57 0,0
08.07.2020 20:00:00 25,5 13,0 9 5 21 11 WSW 1015,7 60 0,0
08.07.2020 19:00:00 25,6 15,3 13 7 22 12 WSW 1015,9 60 0,0
08.07.2020 18:00:00 25,8 16,1 11 6 23 12 SW 1016,1 60 0,0
08.07.2020 17:00:00 25,7 16,0 11 6 26 14 SSW 1016,7 60 0,0
08.07.2020 16:00:00 26,2 16,2 7 4 23 13 S 1017,1 60 0,0
08.07.2020 15:00:00 26,6 17,1 12 6 21 12 SSE 1017,1 60 0,0
08.07.2020 14:00:00 26,4 17,5 9 5 19 10 SSE 1017,2 60 0,0
08.07.2020 13:00:00 26,1 17,7 8 5 18 10 SSE 1017,5 60 0,0
08.07.2020 12:00:00 25,3 17,7 12 6 21 12 SSE 1017,2 60 0,0
08.07.2020 11:00:00 26,5 17,8 14 8 25 14 SE 1016,7 52 0,0
08.07.2020 10:00:00 25,9 18,6 12 6 21 11 ESE 1016,3 58 0,0
08.07.2020 09:00:00 25,4 18,1 12 6 19 10 ESE 1016,0 31 0,0
08.07.2020 08:00:00 24,2 17,7 9 5 16 9 SSE 1015,6 52 0,0
08.07.2020 07:00:00 23,1 17,1 8 4 13 7 SSE 1015,4 25 0,0
08.07.2020 06:00:00 23,8 14,2 6 3 8 5 SSW 1015,1 0 0,0
08.07.2020 05:00:00 23,7 13,8 4 2 5 3 S 1015,0 0 0,0
08.07.2020 04:00:00 22,6 17,5 3 1 6 4 SSE 1015,1 0 0,0

tt = Température de l'air
td = dewpoint
ff = Vitesse du vent
fx = gusts
dd = Direction du vent
ppp = reduced air pressure
sd = Ensoleillement
rr = Quantités de précipitations

stations d'obs. à proximité